sensor_id;sensor_type;location;lat;lon;timestamp;P1;durP1;ratioP1;P2;durP2;ratioP2
4971;SDS011;2501;51.214;6.768;2024-02-21T00:01:06;32.85;;;11.82;;
4971;SDS011;2501;51.214;6.768;2024-02-21T00:03:35;24.15;;;11.20;;
4971;SDS011;2501;51.214;6.768;2024-02-21T00:06:03;27.77;;;11.52;;
4971;SDS011;2501;51.214;6.768;2024-02-21T00:08:35;31.08;;;11.52;;
4971;SDS011;2501;51.214;6.768;2024-02-21T00:11:03;32.92;;;11.30;;
4971;SDS011;2501;51.214;6.768;2024-02-21T00:13:32;26.98;;;10.45;;
4971;SDS011;2501;51.214;6.768;2024-02-21T00:16:00;26.67;;;11.40;;
4971;SDS011;2501;51.214;6.768;2024-02-21T00:18:29;27.67;;;10.80;;
4971;SDS011;2501;51.214;6.768;2024-02-21T00:20:57;34.05;;;12.00;;
4971;SDS011;2501;51.214;6.768;2024-02-21T00:23:26;32.10;;;11.57;;
4971;SDS011;2501;51.214;6.768;2024-02-21T00:25:58;26.92;;;12.20;;
4971;SDS011;2501;51.214;6.768;2024-02-21T00:28:26;30.40;;;11.07;;
4971;SDS011;2501;51.214;6.768;2024-02-21T00:30:54;27.00;;;11.35;;
4971;SDS011;2501;51.214;6.768;2024-02-21T00:33:23;31.20;;;11.20;;
4971;SDS011;2501;51.214;6.768;2024-02-21T00:35:52;28.88;;;11.25;;
4971;SDS011;2501;51.214;6.768;2024-02-21T00:38:20;27.17;;;11.45;;
4971;SDS011;2501;51.214;6.768;2024-02-21T00:40:48;31.00;;;11.70;;
4971;SDS011;2501;51.214;6.768;2024-02-21T00:43:19;34.10;;;11.70;;
4971;SDS011;2501;51.214;6.768;2024-02-21T00:45:49;27.60;;;11.10;;
4971;SDS011;2501;51.214;6.768;2024-02-21T00:48:17;24.88;;;11.50;;
4971;SDS011;2501;51.214;6.768;2024-02-21T00:50:46;29.73;;;11.70;;
4971;SDS011;2501;51.214;6.768;2024-02-21T00:53:14;29.42;;;12.00;;
4971;SDS011;2501;51.214;6.768;2024-02-21T00:55:43;33.50;;;12.23;;
4971;SDS011;2501;51.214;6.768;2024-02-21T00:58:11;31.05;;;10.95;;
4971;SDS011;2501;51.214;6.768;2024-02-21T01:00:42;29.15;;;11.15;;
4971;SDS011;2501;51.214;6.768;2024-02-21T01:03:10;26.23;;;10.88;;
4971;SDS011;2501;51.214;6.768;2024-02-21T01:05:39;28.52;;;11.43;;
4971;SDS011;2501;51.214;6.768;2024-02-21T01:08:07;27.23;;;11.65;;
4971;SDS011;2501;51.214;6.768;2024-02-21T01:10:36;31.92;;;11.60;;
4971;SDS011;2501;51.214;6.768;2024-02-21T01:13:04;34.80;;;10.93;;
4971;SDS011;2501;51.214;6.768;2024-02-21T01:15:32;30.80;;;10.43;;
4971;SDS011;2501;51.214;6.768;2024-02-21T01:18:04;28.20;;;11.10;;
4971;SDS011;2501;51.214;6.768;2024-02-21T01:20:32;27.63;;;11.37;;
4971;SDS011;2501;51.214;6.768;2024-02-21T01:23:00;27.47;;;10.90;;
4971;SDS011;2501;51.214;6.768;2024-02-21T01:25:29;38.05;;;12.93;;
4971;SDS011;2501;51.214;6.768;2024-02-21T01:27:58;32.97;;;10.60;;
4971;SDS011;2501;51.214;6.768;2024-02-21T01:30:26;26.83;;;10.48;;
4971;SDS011;2501;51.214;6.768;2024-02-21T01:32:54;33.63;;;10.47;;
4971;SDS011;2501;51.214;6.768;2024-02-21T01:35:25;33.28;;;12.20;;
4971;SDS011;2501;51.214;6.768;2024-02-21T01:37:54;30.98;;;11.75;;
4971;SDS011;2501;51.214;6.768;2024-02-21T01:40:22;31.53;;;11.67;;
4971;SDS011;2501;51.214;6.768;2024-02-21T01:42:50;27.08;;;10.93;;
4971;SDS011;2501;51.214;6.768;2024-02-21T01:45:20;30.30;;;10.80;;
4971;SDS011;2501;51.214;6.768;2024-02-21T01:47:48;33.30;;;12.00;;
4971;SDS011;2501;51.214;6.768;2024-02-21T01:50:18;29.52;;;11.50;;
4971;SDS011;2501;51.214;6.768;2024-02-21T01:52:49;31.40;;;11.52;;
4971;SDS011;2501;51.214;6.768;2024-02-21T01:55:18;38.97;;;14.45;;
4971;SDS011;2501;51.214;6.768;2024-02-21T01:57:46;28.02;;;9.90;;
4971;SDS011;2501;51.214;6.768;2024-02-21T02:00:15;28.55;;;10.60;;
4971;SDS011;2501;51.214;6.768;2024-02-21T02:02:45;23.50;;;10.03;;
4971;SDS011;2501;51.214;6.768;2024-02-21T02:05:14;37.20;;;10.65;;
4971;SDS011;2501;51.214;6.768;2024-02-21T02:07:43;29.40;;;12.35;;
4971;SDS011;2501;51.214;6.768;2024-02-21T02:10:14;30.08;;;10.82;;
4971;SDS011;2501;51.214;6.768;2024-02-21T02:12:43;25.05;;;11.32;;
4971;SDS011;2501;51.214;6.768;2024-02-21T02:15:11;31.38;;;12.00;;
4971;SDS011;2501;51.214;6.768;2024-02-21T02:17:40;30.70;;;11.38;;
4971;SDS011;2501;51.214;6.768;2024-02-21T02:20:12;24.53;;;10.10;;
4971;SDS011;2501;51.214;6.768;2024-02-21T02:22:41;27.25;;;10.55;;
4971;SDS011;2501;51.214;6.768;2024-02-21T02:25:17;28.77;;;11.25;;
4971;SDS011;2501;51.214;6.768;2024-02-21T02:27:45;28.70;;;10.50;;
4971;SDS011;2501;51.214;6.768;2024-02-21T02:30:14;24.90;;;10.20;;
4971;SDS011;2501;51.214;6.768;2024-02-21T02:32:44;31.23;;;10.93;;
4971;SDS011;2501;51.214;6.768;2024-02-21T02:35:13;29.75;;;10.45;;
4971;SDS011;2501;51.214;6.768;2024-02-21T02:37:47;26.33;;;11.03;;
4971;SDS011;2501;51.214;6.768;2024-02-21T02:40:18;31.53;;;9.80;;
4971;SDS011;2501;51.214;6.768;2024-02-21T02:42:47;25.83;;;9.90;;
4971;SDS011;2501;51.214;6.768;2024-02-21T02:45:16;32.85;;;11.10;;
4971;SDS011;2501;51.214;6.768;2024-02-21T02:47:45;24.90;;;11.00;;
4971;SDS011;2501;51.214;6.768;2024-02-21T02:50:14;29.43;;;10.80;;
4971;SDS011;2501;51.214;6.768;2024-02-21T02:52:42;28.35;;;10.50;;
4971;SDS011;2501;51.214;6.768;2024-02-21T02:55:11;36.25;;;11.10;;
4971;SDS011;2501;51.214;6.768;2024-02-21T02:57:42;26.75;;;9.35;;
4971;SDS011;2501;51.214;6.768;2024-02-21T03:00:11;24.35;;;10.23;;
4971;SDS011;2501;51.214;6.768;2024-02-21T03:02:41;24.92;;;9.60;;
4971;SDS011;2501;51.214;6.768;2024-02-21T03:05:12;29.17;;;10.52;;
4971;SDS011;2501;51.214;6.768;2024-02-21T03:07:42;29.00;;;10.23;;
4971;SDS011;2501;51.214;6.768;2024-02-21T03:10:11;23.52;;;9.75;;
4971;SDS011;2501;51.214;6.768;2024-02-21T03:12:44;29.13;;;10.87;;
4971;SDS011;2501;51.214;6.768;2024-02-21T03:15:12;29.38;;;11.18;;
4971;SDS011;2501;51.214;6.768;2024-02-21T03:17:41;23.30;;;9.93;;
4971;SDS011;2501;51.214;6.768;2024-02-21T03:20:10;24.53;;;9.07;;
4971;SDS011;2501;51.214;6.768;2024-02-21T03:22:39;26.02;;;10.05;;
4971;SDS011;2501;51.214;6.768;2024-02-21T03:25:08;22.95;;;10.27;;
4971;SDS011;2501;51.214;6.768;2024-02-21T03:27:37;24.73;;;10.05;;
4971;SDS011;2501;51.214;6.768;2024-02-21T03:30:09;24.83;;;10.57;;
4971;SDS011;2501;51.214;6.768;2024-02-21T03:32:38;26.23;;;9.30;;
4971;SDS011;2501;51.214;6.768;2024-02-21T03:35:07;22.77;;;9.48;;
4971;SDS011;2501;51.214;6.768;2024-02-21T03:37:35;21.60;;;9.10;;
4971;SDS011;2501;51.214;6.768;2024-02-21T03:40:06;24.03;;;9.40;;
4971;SDS011;2501;51.214;6.768;2024-02-21T03:42:36;24.13;;;9.40;;
4971;SDS011;2501;51.214;6.768;2024-02-21T03:45:06;22.65;;;8.65;;
4971;SDS011;2501;51.214;6.768;2024-02-21T03:47:37;24.42;;;9.90;;
4971;SDS011;2501;51.214;6.768;2024-02-21T03:50:06;26.45;;;8.73;;
4971;SDS011;2501;51.214;6.768;2024-02-21T03:52:35;25.73;;;9.15;;
4971;SDS011;2501;51.214;6.768;2024-02-21T03:55:04;26.02;;;8.80;;
4971;SDS011;2501;51.214;6.768;2024-02-21T03:57:33;20.98;;;9.05;;
4971;SDS011;2501;51.214;6.768;2024-02-21T04:00:01;25.52;;;9.10;;
4971;SDS011;2501;51.214;6.768;2024-02-21T04:02:33;23.90;;;9.05;;
4971;SDS011;2501;51.214;6.768;2024-02-21T04:05:02;22.05;;;8.25;;
4971;SDS011;2501;51.214;6.768;2024-02-21T04:07:31;20.70;;;8.70;;
4971;SDS011;2501;51.214;6.768;2024-02-21T04:09:59;17.30;;;7.55;;
4971;SDS011;2501;51.214;6.768;2024-02-21T04:12:27;22.05;;;8.60;;
4971;SDS011;2501;51.214;6.768;2024-02-21T04:14:56;25.00;;;7.70;;
4971;SDS011;2501;51.214;6.768;2024-02-21T04:17:24;21.50;;;8.63;;
4971;SDS011;2501;51.214;6.768;2024-02-21T04:20:03;21.17;;;8.10;;
4971;SDS011;2501;51.214;6.768;2024-02-21T04:22:33;12.20;;;6.45;;
4971;SDS011;2501;51.214;6.768;2024-02-21T04:25:03;22.90;;;8.17;;
4971;SDS011;2501;51.214;6.768;2024-02-21T04:27:32;22.88;;;7.90;;
4971;SDS011;2501;51.214;6.768;2024-02-21T04:30:00;15.63;;;8.07;;
4971;SDS011;2501;51.214;6.768;2024-02-21T04:32:28;18.40;;;7.28;;
4971;SDS011;2501;51.214;6.768;2024-02-21T04:34:59;19.92;;;6.88;;
4971;SDS011;2501;51.214;6.768;2024-02-21T04:37:28;19.35;;;7.70;;
4971;SDS011;2501;51.214;6.768;2024-02-21T04:39:56;18.00;;;8.20;;
4971;SDS011;2501;51.214;6.768;2024-02-21T04:42:25;20.90;;;7.63;;
4971;SDS011;2501;51.214;6.768;2024-02-21T04:44:53;17.80;;;8.10;;
4971;SDS011;2501;51.214;6.768;2024-02-21T04:47:22;20.45;;;7.60;;
4971;SDS011;2501;51.214;6.768;2024-02-21T04:49:51;18.58;;;7.70;;
4971;SDS011;2501;51.214;6.768;2024-02-21T04:52:22;18.23;;;7.40;;
4971;SDS011;2501;51.214;6.768;2024-02-21T04:54:51;15.77;;;7.95;;
4971;SDS011;2501;51.214;6.768;2024-02-21T04:57:19;22.92;;;8.60;;
4971;SDS011;2501;51.214;6.768;2024-02-21T04:59:48;19.50;;;6.70;;
4971;SDS011;2501;51.214;6.768;2024-02-21T05:02:16;19.15;;;7.70;;
4971;SDS011;2501;51.214;6.768;2024-02-21T05:04:47;18.50;;;7.60;;
4971;SDS011;2501;51.214;6.768;2024-02-21T05:07:16;20.95;;;7.40;;
4971;SDS011;2501;51.214;6.768;2024-02-21T05:09:47;21.67;;;7.80;;
4971;SDS011;2501;51.214;6.768;2024-02-21T05:12:15;18.55;;;7.95;;
4971;SDS011;2501;51.214;6.768;2024-02-21T05:14:44;20.63;;;7.20;;
4971;SDS011;2501;51.214;6.768;2024-02-21T05:17:12;16.83;;;7.90;;
4971;SDS011;2501;51.214;6.768;2024-02-21T05:19:40;25.90;;;8.95;;
4971;SDS011;2501;51.214;6.768;2024-02-21T05:22:09;16.05;;;7.20;;
4971;SDS011;2501;51.214;6.768;2024-02-21T05:24:38;20.85;;;7.40;;
4971;SDS011;2501;51.214;6.768;2024-02-21T05:27:09;19.38;;;7.90;;
4971;SDS011;2501;51.214;6.768;2024-02-21T05:29:38;16.97;;;8.30;;
4971;SDS011;2501;51.214;6.768;2024-02-21T05:32:06;21.15;;;7.38;;
4971;SDS011;2501;51.214;6.768;2024-02-21T05:34:35;19.95;;;9.52;;
4971;SDS011;2501;51.214;6.768;2024-02-21T05:37:03;21.80;;;7.18;;
4971;SDS011;2501;51.214;6.768;2024-02-21T05:39:32;18.17;;;8.20;;
4971;SDS011;2501;51.214;6.768;2024-02-21T05:42:00;22.63;;;7.85;;
4971;SDS011;2501;51.214;6.768;2024-02-21T05:44:31;21.43;;;8.33;;
4971;SDS011;2501;51.214;6.768;2024-02-21T05:46:59;14.15;;;6.80;;
4971;SDS011;2501;51.214;6.768;2024-02-21T05:49:28;17.73;;;7.38;;
4971;SDS011;2501;51.214;6.768;2024-02-21T05:51:57;22.65;;;8.30;;
4971;SDS011;2501;51.214;6.768;2024-02-21T05:54:25;21.30;;;7.70;;
4971;SDS011;2501;51.214;6.768;2024-02-21T05:56:54;20.20;;;7.30;;
4971;SDS011;2501;51.214;6.768;2024-02-21T05:59:22;20.52;;;7.28;;
4971;SDS011;2501;51.214;6.768;2024-02-21T06:01:57;16.92;;;7.88;;
4971;SDS011;2501;51.214;6.768;2024-02-21T06:04:28;20.40;;;7.65;;
4971;SDS011;2501;51.214;6.768;2024-02-21T06:06:56;25.23;;;7.28;;
4971;SDS011;2501;51.214;6.768;2024-02-21T06:09:25;17.33;;;7.88;;
4971;SDS011;2501;51.214;6.768;2024-02-21T06:11:53;20.40;;;6.70;;
4971;SDS011;2501;51.214;6.768;2024-02-21T06:14:22;21.35;;;7.47;;
4971;SDS011;2501;51.214;6.768;2024-02-21T06:16:50;26.83;;;8.07;;
4971;SDS011;2501;51.214;6.768;2024-02-21T06:19:21;17.23;;;7.05;;
4971;SDS011;2501;51.214;6.768;2024-02-21T06:21:50;19.05;;;7.10;;
4971;SDS011;2501;51.214;6.768;2024-02-21T06:24:18;18.83;;;6.82;;
4971;SDS011;2501;51.214;6.768;2024-02-21T06:26:47;17.25;;;6.85;;
4971;SDS011;2501;51.214;6.768;2024-02-21T06:29:15;22.17;;;7.17;;
4971;SDS011;2501;51.214;6.768;2024-02-21T06:31:43;18.50;;;7.20;;
4971;SDS011;2501;51.214;6.768;2024-02-21T06:34:12;13.60;;;7.03;;
4971;SDS011;2501;51.214;6.768;2024-02-21T06:36:44;16.88;;;6.78;;
4971;SDS011;2501;51.214;6.768;2024-02-21T06:39:13;20.05;;;7.15;;
4971;SDS011;2501;51.214;6.768;2024-02-21T06:41:41;21.55;;;7.90;;
4971;SDS011;2501;51.214;6.768;2024-02-21T06:44:10;24.00;;;8.10;;
4971;SDS011;2501;51.214;6.768;2024-02-21T06:46:38;19.17;;;8.20;;
4971;SDS011;2501;51.214;6.768;2024-02-21T06:49:06;24.23;;;9.55;;
4971;SDS011;2501;51.214;6.768;2024-02-21T06:51:43;22.63;;;8.40;;
4971;SDS011;2501;51.214;6.768;2024-02-21T06:54:11;20.35;;;7.85;;
4971;SDS011;2501;51.214;6.768;2024-02-21T06:56:40;25.55;;;8.18;;
4971;SDS011;2501;51.214;6.768;2024-02-21T06:59:08;20.85;;;7.80;;
4971;SDS011;2501;51.214;6.768;2024-02-21T07:01:44;17.55;;;7.50;;
4971;SDS011;2501;51.214;6.768;2024-02-21T07:04:13;18.17;;;7.85;;
4971;SDS011;2501;51.214;6.768;2024-02-21T07:06:44;26.40;;;7.83;;
4971;SDS011;2501;51.214;6.768;2024-02-21T07:09:12;16.20;;;7.57;;
4971;SDS011;2501;51.214;6.768;2024-02-21T07:11:41;15.67;;;6.27;;
4971;SDS011;2501;51.214;6.768;2024-02-21T07:14:09;16.20;;;7.25;;
4971;SDS011;2501;51.214;6.768;2024-02-21T07:16:37;18.23;;;6.85;;
4971;SDS011;2501;51.214;6.768;2024-02-21T07:19:06;22.98;;;8.20;;
4971;SDS011;2501;51.214;6.768;2024-02-21T07:21:35;22.13;;;7.93;;
4971;SDS011;2501;51.214;6.768;2024-02-21T07:24:09;11.88;;;5.43;;
4971;SDS011;2501;51.214;6.768;2024-02-21T07:26:40;11.63;;;5.00;;
4971;SDS011;2501;51.214;6.768;2024-02-21T07:29:09;12.57;;;5.68;;
4971;SDS011;2501;51.214;6.768;2024-02-21T07:31:38;11.35;;;5.25;;
4971;SDS011;2501;51.214;6.768;2024-02-21T07:34:08;17.50;;;7.20;;
4971;SDS011;2501;51.214;6.768;2024-02-21T07:36:37;12.90;;;5.38;;
4971;SDS011;2501;51.214;6.768;2024-02-21T07:39:10;14.57;;;5.90;;
4971;SDS011;2501;51.214;6.768;2024-02-21T07:41:39;13.82;;;5.43;;
4971;SDS011;2501;51.214;6.768;2024-02-21T07:44:10;12.52;;;4.70;;
4971;SDS011;2501;51.214;6.768;2024-02-21T07:46:38;14.82;;;5.80;;
4971;SDS011;2501;51.214;6.768;2024-02-21T07:49:07;16.87;;;5.77;;
4971;SDS011;2501;51.214;6.768;2024-02-21T07:51:35;12.23;;;5.00;;
4971;SDS011;2501;51.214;6.768;2024-02-21T07:54:04;13.57;;;5.03;;
4971;SDS011;2501;51.214;6.768;2024-02-21T07:56:35;12.20;;;5.90;;
4971;SDS011;2501;51.214;6.768;2024-02-21T07:59:03;16.33;;;5.70;;
4971;SDS011;2501;51.214;6.768;2024-02-21T08:01:33;22.00;;;5.70;;
4971;SDS011;2501;51.214;6.768;2024-02-21T08:04:01;12.48;;;4.40;;
4971;SDS011;2501;51.214;6.768;2024-02-21T08:06:30;18.13;;;4.73;;
4971;SDS011;2501;51.214;6.768;2024-02-21T08:08:58;13.82;;;5.15;;
4971;SDS011;2501;51.214;6.768;2024-02-21T08:11:28;19.75;;;4.88;;
4971;SDS011;2501;51.214;6.768;2024-02-21T08:13:59;15.77;;;4.88;;
4971;SDS011;2501;51.214;6.768;2024-02-21T08:16:28;18.58;;;5.10;;
4971;SDS011;2501;51.214;6.768;2024-02-21T08:18:56;14.73;;;4.70;;
4971;SDS011;2501;51.214;6.768;2024-02-21T08:21:27;11.02;;;4.60;;
4971;SDS011;2501;51.214;6.768;2024-02-21T08:23:56;10.57;;;5.07;;
4971;SDS011;2501;51.214;6.768;2024-02-21T08:26:24;11.10;;;5.00;;
4971;SDS011;2501;51.214;6.768;2024-02-21T08:28:58;12.60;;;5.50;;
4971;SDS011;2501;51.214;6.768;2024-02-21T08:31:27;11.65;;;5.43;;
4971;SDS011;2501;51.214;6.768;2024-02-21T08:33:56;19.55;;;6.35;;
4971;SDS011;2501;51.214;6.768;2024-02-21T08:36:27;10.52;;;5.72;;
4971;SDS011;2501;51.214;6.768;2024-02-21T08:38:57;19.55;;;6.40;;
4971;SDS011;2501;51.214;6.768;2024-02-21T08:41:26;22.58;;;6.80;;
4971;SDS011;2501;51.214;6.768;2024-02-21T08:43:55;14.50;;;6.50;;
4971;SDS011;2501;51.214;6.768;2024-02-21T08:46:26;21.17;;;6.70;;
4971;SDS011;2501;51.214;6.768;2024-02-21T08:48:54;18.45;;;6.70;;
4971;SDS011;2501;51.214;6.768;2024-02-21T08:51:23;17.45;;;6.55;;
4971;SDS011;2501;51.214;6.768;2024-02-21T08:53:51;21.98;;;7.15;;
4971;SDS011;2501;51.214;6.768;2024-02-21T08:56:20;14.20;;;6.27;;
4971;SDS011;2501;51.214;6.768;2024-02-21T08:58:49;23.88;;;8.30;;
4971;SDS011;2501;51.214;6.768;2024-02-21T09:01:17;22.73;;;7.55;;
4971;SDS011;2501;51.214;6.768;2024-02-21T09:03:48;24.55;;;7.60;;
4971;SDS011;2501;51.214;6.768;2024-02-21T09:06:18;17.50;;;6.57;;
4971;SDS011;2501;51.214;6.768;2024-02-21T09:08:47;34.65;;;9.90;;
4971;SDS011;2501;51.214;6.768;2024-02-21T09:11:16;20.15;;;6.75;;
4971;SDS011;2501;51.214;6.768;2024-02-21T09:13:44;14.63;;;6.13;;
4971;SDS011;2501;51.214;6.768;2024-02-21T09:16:13;11.40;;;5.97;;
4971;SDS011;2501;51.214;6.768;2024-02-21T09:18:41;19.63;;;7.68;;
4971;SDS011;2501;51.214;6.768;2024-02-21T09:21:12;25.30;;;7.85;;
4971;SDS011;2501;51.214;6.768;2024-02-21T09:23:40;24.88;;;8.65;;
4971;SDS011;2501;51.214;6.768;2024-02-21T09:26:09;20.33;;;8.02;;
4971;SDS011;2501;51.214;6.768;2024-02-21T09:28:41;18.55;;;7.10;;
4971;SDS011;2501;51.214;6.768;2024-02-21T09:31:10;15.90;;;7.85;;
4971;SDS011;2501;51.214;6.768;2024-02-21T09:33:38;27.15;;;9.80;;
4971;SDS011;2501;51.214;6.768;2024-02-21T09:36:07;24.15;;;10.25;;
4971;SDS011;2501;51.214;6.768;2024-02-21T09:38:39;17.43;;;8.90;;
4971;SDS011;2501;51.214;6.768;2024-02-21T09:41:11;23.17;;;8.55;;
4971;SDS011;2501;51.214;6.768;2024-02-21T09:43:44;15.77;;;7.20;;
4971;SDS011;2501;51.214;6.768;2024-02-21T09:46:15;16.05;;;5.45;;
4971;SDS011;2501;51.214;6.768;2024-02-21T09:48:50;14.50;;;6.65;;
4971;SDS011;2501;51.214;6.768;2024-02-21T09:51:32;16.02;;;6.55;;
4971;SDS011;2501;51.214;6.768;2024-02-21T09:54:05;16.90;;;6.70;;
4971;SDS011;2501;51.214;6.768;2024-02-21T09:56:35;18.00;;;6.45;;
4971;SDS011;2501;51.214;6.768;2024-02-21T09:59:04;14.57;;;5.35;;
4971;SDS011;2501;51.214;6.768;2024-02-21T10:01:33;19.40;;;7.90;;
4971;SDS011;2501;51.214;6.768;2024-02-21T10:04:01;20.10;;;7.85;;
4971;SDS011;2501;51.214;6.768;2024-02-21T10:06:30;14.40;;;7.47;;
4971;SDS011;2501;51.214;6.768;2024-02-21T10:08:59;11.23;;;5.20;;
4971;SDS011;2501;51.214;6.768;2024-02-21T10:11:30;10.60;;;5.20;;
4971;SDS011;2501;51.214;6.768;2024-02-21T10:14:03;15.07;;;5.47;;
4971;SDS011;2501;51.214;6.768;2024-02-21T10:16:32;11.40;;;6.28;;
4971;SDS011;2501;51.214;6.768;2024-02-21T10:19:02;12.80;;;5.30;;
4971;SDS011;2501;51.214;6.768;2024-02-21T10:21:30;14.30;;;5.50;;
4971;SDS011;2501;51.214;6.768;2024-02-21T10:23:59;8.05;;;5.00;;
4971;SDS011;2501;51.214;6.768;2024-02-21T10:26:27;13.88;;;5.10;;
4971;SDS011;2501;51.214;6.768;2024-02-21T10:28:58;8.93;;;4.40;;
4971;SDS011;2501;51.214;6.768;2024-02-21T10:31:29;9.35;;;4.50;;
4971;SDS011;2501;51.214;6.768;2024-02-21T10:33:59;12.02;;;4.80;;
4971;SDS011;2501;51.214;6.768;2024-02-21T10:36:28;7.97;;;3.73;;
4971;SDS011;2501;51.214;6.768;2024-02-21T10:38:57;10.75;;;4.28;;
4971;SDS011;2501;51.214;6.768;2024-02-21T10:41:25;11.40;;;4.10;;
4971;SDS011;2501;51.214;6.768;2024-02-21T10:43:54;12.80;;;4.38;;
4971;SDS011;2501;51.214;6.768;2024-02-21T10:46:26;9.52;;;3.78;;
4971;SDS011;2501;51.214;6.768;2024-02-21T10:49:01;12.70;;;3.70;;
4971;SDS011;2501;51.214;6.768;2024-02-21T10:51:33;9.45;;;4.10;;
4971;SDS011;2501;51.214;6.768;2024-02-21T10:54:06;11.15;;;5.15;;
4971;SDS011;2501;51.214;6.768;2024-02-21T10:56:44;10.63;;;3.70;;
4971;SDS011;2501;51.214;6.768;2024-02-21T10:59:13;10.60;;;4.77;;
4971;SDS011;2501;51.214;6.768;2024-02-21T11:01:45;14.48;;;4.32;;
4971;SDS011;2501;51.214;6.768;2024-02-21T11:04:13;13.55;;;5.85;;
4971;SDS011;2501;51.214;6.768;2024-02-21T11:06:42;13.85;;;4.97;;
4971;SDS011;2501;51.214;6.768;2024-02-21T11:09:11;17.23;;;5.20;;
4971;SDS011;2501;51.214;6.768;2024-02-21T11:11:40;13.30;;;5.45;;
4971;SDS011;2501;51.214;6.768;2024-02-21T11:14:09;10.68;;;4.80;;
4971;SDS011;2501;51.214;6.768;2024-02-21T11:16:39;11.05;;;4.45;;
4971;SDS011;2501;51.214;6.768;2024-02-21T11:19:18;8.10;;;3.80;;
4971;SDS011;2501;51.214;6.768;2024-02-21T11:21:47;13.20;;;5.00;;
4971;SDS011;2501;51.214;6.768;2024-02-21T11:24:25;14.32;;;4.82;;
4971;SDS011;2501;51.214;6.768;2024-02-21T11:26:53;12.20;;;4.70;;
4971;SDS011;2501;51.214;6.768;2024-02-21T11:29:25;10.45;;;4.90;;
4971;SDS011;2501;51.214;6.768;2024-02-21T11:31:54;10.77;;;4.40;;
4971;SDS011;2501;51.214;6.768;2024-02-21T11:34:25;13.23;;;4.97;;
4971;SDS011;2501;51.214;6.768;2024-02-21T11:36:55;18.40;;;4.43;;
4971;SDS011;2501;51.214;6.768;2024-02-21T11:39:23;14.95;;;4.70;;
4971;SDS011;2501;51.214;6.768;2024-02-21T11:42:02;10.88;;;4.20;;
4971;SDS011;2501;51.214;6.768;2024-02-21T11:44:33;13.13;;;5.03;;
4971;SDS011;2501;51.214;6.768;2024-02-21T11:47:03;10.05;;;3.85;;
4971;SDS011;2501;51.214;6.768;2024-02-21T11:49:35;13.32;;;4.60;;
4971;SDS011;2501;51.214;6.768;2024-02-21T11:52:05;14.20;;;4.70;;
4971;SDS011;2501;51.214;6.768;2024-02-21T11:54:34;15.95;;;4.90;;
4971;SDS011;2501;51.214;6.768;2024-02-21T11:57:03;13.68;;;3.78;;
4971;SDS011;2501;51.214;6.768;2024-02-21T11:59:31;9.90;;;4.40;;
4971;SDS011;2501;51.214;6.768;2024-02-21T12:02:00;9.68;;;4.00;;
4971;SDS011;2501;51.214;6.768;2024-02-21T12:04:30;12.48;;;5.13;;
4971;SDS011;2501;51.214;6.768;2024-02-21T12:07:02;12.13;;;4.28;;
4971;SDS011;2501;51.214;6.768;2024-02-21T12:09:31;9.95;;;4.72;;
4971;SDS011;2501;51.214;6.768;2024-02-21T12:12:02;9.93;;;5.10;;
4971;SDS011;2501;51.214;6.768;2024-02-21T12:14:32;11.90;;;4.70;;
4971;SDS011;2501;51.214;6.768;2024-02-21T12:17:03;11.48;;;4.60;;
4971;SDS011;2501;51.214;6.768;2024-02-21T12:19:32;12.40;;;3.80;;
4971;SDS011;2501;51.214;6.768;2024-02-21T12:22:04;11.57;;;4.63;;
4971;SDS011;2501;51.214;6.768;2024-02-21T12:24:33;10.10;;;4.35;;
4971;SDS011;2501;51.214;6.768;2024-02-21T12:27:03;9.07;;;4.03;;
4971;SDS011;2501;51.214;6.768;2024-02-21T12:29:32;12.20;;;3.90;;
4971;SDS011;2501;51.214;6.768;2024-02-21T12:32:01;11.53;;;3.50;;
4971;SDS011;2501;51.214;6.768;2024-02-21T12:34:29;14.00;;;3.78;;
4971;SDS011;2501;51.214;6.768;2024-02-21T12:36:58;8.38;;;3.90;;
4971;SDS011;2501;51.214;6.768;2024-02-21T12:39:31;12.55;;;4.07;;
4971;SDS011;2501;51.214;6.768;2024-02-21T12:41:59;12.43;;;3.80;;
4971;SDS011;2501;51.214;6.768;2024-02-21T12:44:28;5.90;;;3.70;;
4971;SDS011;2501;51.214;6.768;2024-02-21T12:46:57;10.43;;;4.35;;
4971;SDS011;2501;51.214;6.768;2024-02-21T12:49:25;8.70;;;3.97;;
4971;SDS011;2501;51.214;6.768;2024-02-21T12:51:54;13.40;;;4.00;;
4971;SDS011;2501;51.214;6.768;2024-02-21T12:54:23;10.82;;;4.80;;
4971;SDS011;2501;51.214;6.768;2024-02-21T12:56:54;12.93;;;4.72;;
4971;SDS011;2501;51.214;6.768;2024-02-21T12:59:23;17.48;;;4.45;;
4971;SDS011;2501;51.214;6.768;2024-02-21T13:01:53;10.77;;;3.97;;
4971;SDS011;2501;51.214;6.768;2024-02-21T13:04:21;8.10;;;4.38;;
4971;SDS011;2501;51.214;6.768;2024-02-21T13:06:50;16.67;;;4.65;;
4971;SDS011;2501;51.214;6.768;2024-02-21T13:09:19;14.05;;;4.30;;
4971;SDS011;2501;51.214;6.768;2024-02-21T13:11:48;12.38;;;4.55;;
4971;SDS011;2501;51.214;6.768;2024-02-21T13:14:19;16.20;;;4.97;;
4971;SDS011;2501;51.214;6.768;2024-02-21T13:16:47;10.90;;;4.10;;
4971;SDS011;2501;51.214;6.768;2024-02-21T13:19:16;12.90;;;4.80;;
4971;SDS011;2501;51.214;6.768;2024-02-21T13:21:45;12.70;;;4.20;;
4971;SDS011;2501;51.214;6.768;2024-02-21T13:24:14;12.10;;;4.25;;
4971;SDS011;2501;51.214;6.768;2024-02-21T13:26:42;11.20;;;5.63;;
4971;SDS011;2501;51.214;6.768;2024-02-21T13:29:10;8.82;;;4.55;;
4971;SDS011;2501;51.214;6.768;2024-02-21T13:31:41;19.02;;;7.68;;
4971;SDS011;2501;51.214;6.768;2024-02-21T13:34:10;10.38;;;6.20;;
4971;SDS011;2501;51.214;6.768;2024-02-21T13:36:38;11.98;;;6.90;;
4971;SDS011;2501;51.214;6.768;2024-02-21T13:39:07;8.50;;;4.15;;
4971;SDS011;2501;51.214;6.768;2024-02-21T13:41:40;12.95;;;6.60;;
4971;SDS011;2501;51.214;6.768;2024-02-21T13:44:09;11.82;;;4.60;;
4971;SDS011;2501;51.214;6.768;2024-02-21T13:46:38;8.77;;;4.60;;
4971;SDS011;2501;51.214;6.768;2024-02-21T13:49:09;9.25;;;4.20;;
4971;SDS011;2501;51.214;6.768;2024-02-21T13:51:38;12.95;;;4.50;;
4971;SDS011;2501;51.214;6.768;2024-02-21T13:54:07;10.98;;;4.65;;
4971;SDS011;2501;51.214;6.768;2024-02-21T13:56:36;15.00;;;5.43;;
4971;SDS011;2501;51.214;6.768;2024-02-21T13:59:05;13.73;;;4.68;;
4971;SDS011;2501;51.214;6.768;2024-02-21T14:01:33;11.27;;;4.50;;
4971;SDS011;2501;51.214;6.768;2024-02-21T14:04:02;13.23;;;4.20;;
4971;SDS011;2501;51.214;6.768;2024-02-21T14:06:34;14.57;;;5.00;;
4971;SDS011;2501;51.214;6.768;2024-02-21T14:09:08;8.38;;;4.75;;
4971;SDS011;2501;51.214;6.768;2024-02-21T14:11:36;9.80;;;4.10;;
4971;SDS011;2501;51.214;6.768;2024-02-21T14:14:06;12.70;;;4.35;;
4971;SDS011;2501;51.214;6.768;2024-02-21T14:16:35;8.88;;;3.83;;
4971;SDS011;2501;51.214;6.768;2024-02-21T14:19:03;14.50;;;4.40;;
4971;SDS011;2501;51.214;6.768;2024-02-21T14:21:32;14.85;;;4.20;;
4971;SDS011;2501;51.214;6.768;2024-02-21T14:24:03;15.03;;;3.70;;
4971;SDS011;2501;51.214;6.768;2024-02-21T14:26:32;12.70;;;3.63;;
4971;SDS011;2501;51.214;6.768;2024-02-21T14:29:01;10.10;;;3.83;;
4971;SDS011;2501;51.214;6.768;2024-02-21T14:31:30;9.27;;;4.05;;
4971;SDS011;2501;51.214;6.768;2024-02-21T14:33:59;16.40;;;4.32;;
4971;SDS011;2501;51.214;6.768;2024-02-21T14:36:28;15.80;;;4.10;;
4971;SDS011;2501;51.214;6.768;2024-02-21T14:39:00;9.00;;;4.55;;
4971;SDS011;2501;51.214;6.768;2024-02-21T14:41:29;11.68;;;4.10;;
4971;SDS011;2501;51.214;6.768;2024-02-21T14:44:00;13.35;;;5.50;;
4971;SDS011;2501;51.214;6.768;2024-02-21T14:46:28;12.85;;;5.60;;
4971;SDS011;2501;51.214;6.768;2024-02-21T14:48:57;8.75;;;4.07;;
4971;SDS011;2501;51.214;6.768;2024-02-21T14:51:25;10.05;;;4.45;;
4971;SDS011;2501;51.214;6.768;2024-02-21T14:53:54;8.83;;;4.30;;
4971;SDS011;2501;51.214;6.768;2024-02-21T14:56:25;12.98;;;4.70;;
4971;SDS011;2501;51.214;6.768;2024-02-21T14:58:51;17.50;;;4.82;;
4971;SDS011;2501;51.214;6.768;2024-02-21T15:01:19;10.57;;;4.32;;
4971;SDS011;2501;51.214;6.768;2024-02-21T15:03:48;8.85;;;3.83;;
4971;SDS011;2501;51.214;6.768;2024-02-21T15:06:16;11.30;;;4.45;;
4971;SDS011;2501;51.214;6.768;2024-02-21T15:08:45;12.13;;;4.55;;
4971;SDS011;2501;51.214;6.768;2024-02-21T15:11:15;10.88;;;4.25;;
4971;SDS011;2501;51.214;6.768;2024-02-21T15:13:46;9.50;;;3.97;;